sensor_id;sensor_type;location;lat;lon;timestamp;temperature;humidity
23160;DHT22;11748;50.844;4.396;2023-06-14T00:00:13;23.30;75.40
23160;DHT22;11748;50.844;4.396;2023-06-14T00:02:40;23.20;75.40
23160;DHT22;11748;50.844;4.396;2023-06-14T00:05:07;23.30;75.80
23160;DHT22;11748;50.844;4.396;2023-06-14T00:07:35;23.30;75.60
23160;DHT22;11748;50.844;4.396;2023-06-14T00:10:01;23.30;75.50
23160;DHT22;11748;50.844;4.396;2023-06-14T00:12:27;23.30;75.60
23160;DHT22;11748;50.844;4.396;2023-06-14T00:14:52;23.30;75.70
23160;DHT22;11748;50.844;4.396;2023-06-14T00:17:18;23.20;75.70
23160;DHT22;11748;50.844;4.396;2023-06-14T00:19:44;23.10;76.00
23160;DHT22;11748;50.844;4.396;2023-06-14T00:22:09;23.10;76.00
23160;DHT22;11748;50.844;4.396;2023-06-14T00:24:36;23.10;76.00
23160;DHT22;11748;50.844;4.396;2023-06-14T00:27:01;23.10;76.20
23160;DHT22;11748;50.844;4.396;2023-06-14T00:29:27;23.00;76.50
23160;DHT22;11748;50.844;4.396;2023-06-14T00:31:52;23.00;76.60
23160;DHT22;11748;50.844;4.396;2023-06-14T00:34:18;22.90;76.60
23160;DHT22;11748;50.844;4.396;2023-06-14T00:36:43;22.80;76.80
23160;DHT22;11748;50.844;4.396;2023-06-14T00:39:09;22.80;77.00
23160;DHT22;11748;50.844;4.396;2023-06-14T00:41:35;22.70;77.20
23160;DHT22;11748;50.844;4.396;2023-06-14T00:44:00;22.70;77.30
23160;DHT22;11748;50.844;4.396;2023-06-14T00:46:26;22.80;77.30
23160;DHT22;11748;50.844;4.396;2023-06-14T00:48:52;22.70;77.30
23160;DHT22;11748;50.844;4.396;2023-06-14T00:51:18;22.70;77.50
23160;DHT22;11748;50.844;4.396;2023-06-14T00:53:44;22.60;77.70
23160;DHT22;11748;50.844;4.396;2023-06-14T00:56:13;22.60;77.90
23160;DHT22;11748;50.844;4.396;2023-06-14T00:58:40;22.50;77.90
23160;DHT22;11748;50.844;4.396;2023-06-14T01:01:06;22.60;77.90
23160;DHT22;11748;50.844;4.396;2023-06-14T01:03:32;22.50;78.00
23160;DHT22;11748;50.844;4.396;2023-06-14T01:09:09;22.50;78.30
23160;DHT22;11748;50.844;4.396;2023-06-14T01:11:49;22.50;78.20
23160;DHT22;11748;50.844;4.396;2023-06-14T01:14:16;22.40;78.40
23160;DHT22;11748;50.844;4.396;2023-06-14T01:16:43;22.40;78.20
23160;DHT22;11748;50.844;4.396;2023-06-14T01:19:12;22.40;78.60
23160;DHT22;11748;50.844;4.396;2023-06-14T01:21:39;22.40;78.60
23160;DHT22;11748;50.844;4.396;2023-06-14T01:24:08;22.30;78.70
23160;DHT22;11748;50.844;4.396;2023-06-14T01:26:35;22.30;78.90
23160;DHT22;11748;50.844;4.396;2023-06-14T01:29:03;22.20;79.00
23160;DHT22;11748;50.844;4.396;2023-06-14T01:31:29;22.20;79.00
23160;DHT22;11748;50.844;4.396;2023-06-14T01:34:05;22.20;79.00
23160;DHT22;11748;50.844;4.396;2023-06-14T01:36:31;22.20;79.10
23160;DHT22;11748;50.844;4.396;2023-06-14T01:38:58;22.10;79.20
23160;DHT22;11748;50.844;4.396;2023-06-14T01:41:25;22.10;79.30
23160;DHT22;11748;50.844;4.396;2023-06-14T01:43:52;22.10;79.50
23160;DHT22;11748;50.844;4.396;2023-06-14T01:46:19;22.10;79.60
23160;DHT22;11748;50.844;4.396;2023-06-14T01:48:45;22.10;79.70
23160;DHT22;11748;50.844;4.396;2023-06-14T01:51:12;22.10;79.80
23160;DHT22;11748;50.844;4.396;2023-06-14T01:53:37;22.00;80.00
23160;DHT22;11748;50.844;4.396;2023-06-14T01:56:03;21.90;80.30
23160;DHT22;11748;50.844;4.396;2023-06-14T01:58:30;21.80;80.40
23160;DHT22;11748;50.844;4.396;2023-06-14T02:00:56;21.70;80.60
23160;DHT22;11748;50.844;4.396;2023-06-14T02:03:23;21.70;80.70
23160;DHT22;11748;50.844;4.396;2023-06-14T02:05:49;21.70;80.80
23160;DHT22;11748;50.844;4.396;2023-06-14T02:08:15;21.60;80.90
23160;DHT22;11748;50.844;4.396;2023-06-14T02:10:41;21.70;81.00
23160;DHT22;11748;50.844;4.396;2023-06-14T02:13:06;21.60;81.20
23160;DHT22;11748;50.844;4.396;2023-06-14T02:15:32;21.50;81.30
23160;DHT22;11748;50.844;4.396;2023-06-14T02:18:04;21.40;81.60
23160;DHT22;11748;50.844;4.396;2023-06-14T02:20:30;21.40;81.70
23160;DHT22;11748;50.844;4.396;2023-06-14T02:22:57;21.40;81.70
23160;DHT22;11748;50.844;4.396;2023-06-14T02:25:23;21.50;81.80
23160;DHT22;11748;50.844;4.396;2023-06-14T02:27:48;21.40;81.80
23160;DHT22;11748;50.844;4.396;2023-06-14T02:30:14;21.30;82.00
23160;DHT22;11748;50.844;4.396;2023-06-14T02:32:41;21.30;82.20
23160;DHT22;11748;50.844;4.396;2023-06-14T02:35:08;21.30;82.40
23160;DHT22;11748;50.844;4.396;2023-06-14T02:37:35;21.20;82.30
23160;DHT22;11748;50.844;4.396;2023-06-14T02:40:00;21.30;82.30
23160;DHT22;11748;50.844;4.396;2023-06-14T02:42:26;21.20;82.40
23160;DHT22;11748;50.844;4.396;2023-06-14T02:44:52;21.20;82.50
23160;DHT22;11748;50.844;4.396;2023-06-14T02:47:18;21.20;82.60
23160;DHT22;11748;50.844;4.396;2023-06-14T02:49:44;21.20;82.60
23160;DHT22;11748;50.844;4.396;2023-06-14T02:52:11;21.20;82.80
23160;DHT22;11748;50.844;4.396;2023-06-14T02:54:37;21.10;82.70
23160;DHT22;11748;50.844;4.396;2023-06-14T02:57:03;21.10;82.80
23160;DHT22;11748;50.844;4.396;2023-06-14T02:59:28;21.10;82.80
23160;DHT22;11748;50.844;4.396;2023-06-14T03:01:55;21.10;83.00
23160;DHT22;11748;50.844;4.396;2023-06-14T03:04:20;21.00;83.40
23160;DHT22;11748;50.844;4.396;2023-06-14T03:06:46;20.90;83.80
23160;DHT22;11748;50.844;4.396;2023-06-14T03:09:16;20.80;83.80
23160;DHT22;11748;50.844;4.396;2023-06-14T03:11:41;20.80;84.10
23160;DHT22;11748;50.844;4.396;2023-06-14T03:14:07;20.80;84.10
23160;DHT22;11748;50.844;4.396;2023-06-14T03:16:34;20.80;84.20
23160;DHT22;11748;50.844;4.396;2023-06-14T03:18:59;20.80;84.00
23160;DHT22;11748;50.844;4.396;2023-06-14T03:21:26;20.90;84.10
23160;DHT22;11748;50.844;4.396;2023-06-14T03:23:52;20.70;84.10
23160;DHT22;11748;50.844;4.396;2023-06-14T03:26:18;20.70;84.50
23160;DHT22;11748;50.844;4.396;2023-06-14T03:28:47;20.60;84.50
23160;DHT22;11748;50.844;4.396;2023-06-14T03:31:15;20.60;85.40
23160;DHT22;11748;50.844;4.396;2023-06-14T03:33:41;20.60;84.80
23160;DHT22;11748;50.844;4.396;2023-06-14T03:36:07;20.60;84.80
23160;DHT22;11748;50.844;4.396;2023-06-14T03:38:34;20.60;84.70
23160;DHT22;11748;50.844;4.396;2023-06-14T03:41:00;20.60;84.60
23160;DHT22;11748;50.844;4.396;2023-06-14T03:43:26;20.60;84.70
23160;DHT22;11748;50.844;4.396;2023-06-14T03:45:52;20.60;84.70
23160;DHT22;11748;50.844;4.396;2023-06-14T03:48:18;20.60;84.70
23160;DHT22;11748;50.844;4.396;2023-06-14T03:50:44;20.50;85.00
23160;DHT22;11748;50.844;4.396;2023-06-14T03:53:10;20.50;85.10
23160;DHT22;11748;50.844;4.396;2023-06-14T03:55:36;20.40;85.30
23160;DHT22;11748;50.844;4.396;2023-06-14T03:58:03;20.40;85.50
23160;DHT22;11748;50.844;4.396;2023-06-14T04:00:29;20.40;85.50
23160;DHT22;11748;50.844;4.396;2023-06-14T04:02:54;20.40;85.50
23160;DHT22;11748;50.844;4.396;2023-06-14T04:05:20;20.40;85.70
23160;DHT22;11748;50.844;4.396;2023-06-14T04:07:46;20.40;85.70
23160;DHT22;11748;50.844;4.396;2023-06-14T04:10:15;20.40;85.80
23160;DHT22;11748;50.844;4.396;2023-06-14T04:12:41;20.40;85.90
23160;DHT22;11748;50.844;4.396;2023-06-14T04:15:07;20.40;85.80
23160;DHT22;11748;50.844;4.396;2023-06-14T04:17:34;20.40;85.90
23160;DHT22;11748;50.844;4.396;2023-06-14T04:20:01;20.40;86.00
23160;DHT22;11748;50.844;4.396;2023-06-14T04:22:27;20.40;86.00
23160;DHT22;11748;50.844;4.396;2023-06-14T04:24:56;20.40;85.90
23160;DHT22;11748;50.844;4.396;2023-06-14T04:27:23;20.40;85.80
23160;DHT22;11748;50.844;4.396;2023-06-14T04:29:54;20.40;86.00
23160;DHT22;11748;50.844;4.396;2023-06-14T04:32:26;20.40;86.00
23160;DHT22;11748;50.844;4.396;2023-06-14T04:34:58;20.40;85.70
23160;DHT22;11748;50.844;4.396;2023-06-14T04:37:24;20.40;85.70
23160;DHT22;11748;50.844;4.396;2023-06-14T04:39:51;20.40;85.80
23160;DHT22;11748;50.844;4.396;2023-06-14T04:42:17;20.40;85.70
23160;DHT22;11748;50.844;4.396;2023-06-14T04:44:46;20.50;85.90
23160;DHT22;11748;50.844;4.396;2023-06-14T04:47:14;20.50;85.70
23160;DHT22;11748;50.844;4.396;2023-06-14T04:49:41;20.50;85.80
23160;DHT22;11748;50.844;4.396;2023-06-14T04:52:07;20.50;85.90
23160;DHT22;11748;50.844;4.396;2023-06-14T04:54:38;20.50;85.60
23160;DHT22;11748;50.844;4.396;2023-06-14T04:57:07;20.60;85.30
23160;DHT22;11748;50.844;4.396;2023-06-14T04:59:34;20.60;85.30
23160;DHT22;11748;50.844;4.396;2023-06-14T05:02:01;20.60;85.60
23160;DHT22;11748;50.844;4.396;2023-06-14T05:04:27;20.50;85.80
23160;DHT22;11748;50.844;4.396;2023-06-14T05:06:53;20.50;85.80
23160;DHT22;11748;50.844;4.396;2023-06-14T05:09:20;20.60;86.30
23160;DHT22;11748;50.844;4.396;2023-06-14T05:11:46;20.60;85.50
23160;DHT22;11748;50.844;4.396;2023-06-14T05:14:14;20.60;85.70
23160;DHT22;11748;50.844;4.396;2023-06-14T05:16:40;20.60;85.60
23160;DHT22;11748;50.844;4.396;2023-06-14T05:19:06;20.70;85.40
23160;DHT22;11748;50.844;4.396;2023-06-14T05:21:32;20.70;85.20
23160;DHT22;11748;50.844;4.396;2023-06-14T05:24:01;20.70;85.30
23160;DHT22;11748;50.844;4.396;2023-06-14T05:26:27;20.70;85.40
23160;DHT22;11748;50.844;4.396;2023-06-14T05:28:56;20.70;85.50
23160;DHT22;11748;50.844;4.396;2023-06-14T05:31:23;20.70;85.50
23160;DHT22;11748;50.844;4.396;2023-06-14T05:33:49;20.70;85.40
23160;DHT22;11748;50.844;4.396;2023-06-14T05:36:15;20.80;85.10
23160;DHT22;11748;50.844;4.396;2023-06-14T05:38:41;20.90;84.90
23160;DHT22;11748;50.844;4.396;2023-06-14T05:41:06;20.90;85.00
23160;DHT22;11748;50.844;4.396;2023-06-14T05:43:32;20.90;84.80
23160;DHT22;11748;50.844;4.396;2023-06-14T05:45:58;21.00;84.90
23160;DHT22;11748;50.844;4.396;2023-06-14T05:48:24;21.00;84.70
23160;DHT22;11748;50.844;4.396;2023-06-14T05:50:49;21.00;84.90
23160;DHT22;11748;50.844;4.396;2023-06-14T05:53:15;21.10;84.90
23160;DHT22;11748;50.844;4.396;2023-06-14T05:55:41;21.20;84.70
23160;DHT22;11748;50.844;4.396;2023-06-14T05:58:06;21.30;84.50
23160;DHT22;11748;50.844;4.396;2023-06-14T06:00:32;21.30;84.40
23160;DHT22;11748;50.844;4.396;2023-06-14T06:02:58;21.50;84.40
23160;DHT22;11748;50.844;4.396;2023-06-14T06:05:24;21.50;83.80
23160;DHT22;11748;50.844;4.396;2023-06-14T06:07:50;21.60;83.90
23160;DHT22;11748;50.844;4.396;2023-06-14T06:10:16;21.80;83.90
23160;DHT22;11748;50.844;4.396;2023-06-14T06:12:42;22.30;82.90
23160;DHT22;11748;50.844;4.396;2023-06-14T06:15:08;23.70;80.60
23160;DHT22;11748;50.844;4.396;2023-06-14T06:17:37;25.30;77.30
23160;DHT22;11748;50.844;4.396;2023-06-14T06:20:04;26.50;74.70
23160;DHT22;11748;50.844;4.396;2023-06-14T06:22:31;27.30;73.20
23160;DHT22;11748;50.844;4.396;2023-06-14T06:24:56;28.20;71.30
23160;DHT22;11748;50.844;4.396;2023-06-14T06:27:22;28.90;69.90
23160;DHT22;11748;50.844;4.396;2023-06-14T06:29:48;29.10;68.80
23160;DHT22;11748;50.844;4.396;2023-06-14T06:32:15;29.20;69.00
23160;DHT22;11748;50.844;4.396;2023-06-14T06:34:40;29.20;68.70
23160;DHT22;11748;50.844;4.396;2023-06-14T06:37:06;29.00;69.40
23160;DHT22;11748;50.844;4.396;2023-06-14T06:39:33;28.50;69.70
23160;DHT22;11748;50.844;4.396;2023-06-14T06:41:58;28.00;70.60
23160;DHT22;11748;50.844;4.396;2023-06-14T06:44:24;27.50;71.40
23160;DHT22;11748;50.844;4.396;2023-06-14T06:46:49;26.80;72.40
23160;DHT22;11748;50.844;4.396;2023-06-14T06:49:15;26.30;73.50
23160;DHT22;11748;50.844;4.396;2023-06-14T06:51:42;26.00;74.10
23160;DHT22;11748;50.844;4.396;2023-06-14T06:54:08;25.80;74.20
23160;DHT22;11748;50.844;4.396;2023-06-14T06:56:35;25.40;75.30
23160;DHT22;11748;50.844;4.396;2023-06-14T06:59:01;25.30;75.40
23160;DHT22;11748;50.844;4.396;2023-06-14T07:01:26;25.10;75.10
23160;DHT22;11748;50.844;4.396;2023-06-14T07:03:54;25.10;75.40
23160;DHT22;11748;50.844;4.396;2023-06-14T07:06:20;24.90;75.50
23160;DHT22;11748;50.844;4.396;2023-06-14T07:08:46;25.00;75.90
23160;DHT22;11748;50.844;4.396;2023-06-14T07:11:15;24.80;76.20
23160;DHT22;11748;50.844;4.396;2023-06-14T07:13:40;24.80;76.60
23160;DHT22;11748;50.844;4.396;2023-06-14T07:16:06;24.70;77.10
23160;DHT22;11748;50.844;4.396;2023-06-14T07:18:31;24.70;76.70
23160;DHT22;11748;50.844;4.396;2023-06-14T07:20:57;24.60;77.20
23160;DHT22;11748;50.844;4.396;2023-06-14T07:23:23;24.60;77.00
23160;DHT22;11748;50.844;4.396;2023-06-14T07:25:49;24.70;77.10
23160;DHT22;11748;50.844;4.396;2023-06-14T07:28:16;24.70;76.90
23160;DHT22;11748;50.844;4.396;2023-06-14T07:30:42;24.80;76.80
23160;DHT22;11748;50.844;4.396;2023-06-14T07:33:07;24.80;77.10
23160;DHT22;11748;50.844;4.396;2023-06-14T07:35:34;24.90;76.90
23160;DHT22;11748;50.844;4.396;2023-06-14T07:37:59;24.90;76.40
23160;DHT22;11748;50.844;4.396;2023-06-14T07:40:25;25.00;76.70
23160;DHT22;11748;50.844;4.396;2023-06-14T07:42:51;25.00;75.90
23160;DHT22;11748;50.844;4.396;2023-06-14T07:45:16;25.10;75.80
23160;DHT22;11748;50.844;4.396;2023-06-14T07:47:42;25.10;75.40
23160;DHT22;11748;50.844;4.396;2023-06-14T07:50:09;25.10;75.90
23160;DHT22;11748;50.844;4.396;2023-06-14T07:52:35;25.10;75.90
23160;DHT22;11748;50.844;4.396;2023-06-14T07:55:00;25.10;76.20
23160;DHT22;11748;50.844;4.396;2023-06-14T07:57:26;25.10;76.50
23160;DHT22;11748;50.844;4.396;2023-06-14T07:59:51;25.20;76.60
23160;DHT22;11748;50.844;4.396;2023-06-14T08:02:17;25.20;76.90
23160;DHT22;11748;50.844;4.396;2023-06-14T08:04:43;25.10;77.10
23160;DHT22;11748;50.844;4.396;2023-06-14T08:07:09;25.00;77.40
23160;DHT22;11748;50.844;4.396;2023-06-14T08:09:35;25.10;77.20
23160;DHT22;11748;50.844;4.396;2023-06-14T08:12:04;25.30;75.50
23160;DHT22;11748;50.844;4.396;2023-06-14T08:14:33;25.30;76.00
23160;DHT22;11748;50.844;4.396;2023-06-14T08:16:59;25.10;76.60
23160;DHT22;11748;50.844;4.396;2023-06-14T08:19:25;25.20;77.10
23160;DHT22;11748;50.844;4.396;2023-06-14T08:21:51;25.30;77.70
23160;DHT22;11748;50.844;4.396;2023-06-14T08:24:17;25.40;77.40
23160;DHT22;11748;50.844;4.396;2023-06-14T08:26:44;25.50;77.60
23160;DHT22;11748;50.844;4.396;2023-06-14T08:29:09;25.60;76.20
23160;DHT22;11748;50.844;4.396;2023-06-14T08:31:35;25.60;76.20
23160;DHT22;11748;50.844;4.396;2023-06-14T08:34:01;25.60;76.40
23160;DHT22;11748;50.844;4.396;2023-06-14T08:36:27;25.70;75.20
23160;DHT22;11748;50.844;4.396;2023-06-14T08:38:52;25.70;75.90
23160;DHT22;11748;50.844;4.396;2023-06-14T08:41:22;25.70;76.20
23160;DHT22;11748;50.844;4.396;2023-06-14T08:43:50;25.70;76.00
23160;DHT22;11748;50.844;4.396;2023-06-14T08:46:17;25.70;75.10
23160;DHT22;11748;50.844;4.396;2023-06-14T08:48:47;25.70;75.20
23160;DHT22;11748;50.844;4.396;2023-06-14T08:51:16;25.60;76.00
23160;DHT22;11748;50.844;4.396;2023-06-14T08:53:44;25.60;76.70
23160;DHT22;11748;50.844;4.396;2023-06-14T08:56:09;25.60;77.10
23160;DHT22;11748;50.844;4.396;2023-06-14T08:58:42;25.70;75.70
23160;DHT22;11748;50.844;4.396;2023-06-14T09:01:13;25.70;76.60
23160;DHT22;11748;50.844;4.396;2023-06-14T09:03:43;25.70;77.60
23160;DHT22;11748;50.844;4.396;2023-06-14T09:06:09;25.70;77.10
23160;DHT22;11748;50.844;4.396;2023-06-14T09:08:41;25.70;77.00
23160;DHT22;11748;50.844;4.396;2023-06-14T09:11:08;25.70;77.70
23160;DHT22;11748;50.844;4.396;2023-06-14T09:13:33;25.80;77.90
23160;DHT22;11748;50.844;4.396;2023-06-14T09:15:59;25.70;77.90
23160;DHT22;11748;50.844;4.396;2023-06-14T09:18:46;25.80;78.20
23160;DHT22;11748;50.844;4.396;2023-06-14T09:21:16;26.00;78.10
23160;DHT22;11748;50.844;4.396;2023-06-14T09:23:46;26.00;77.90
23160;DHT22;11748;50.844;4.396;2023-06-14T09:26:16;26.10;78.20
23160;DHT22;11748;50.844;4.396;2023-06-14T09:28:43;26.20;75.60
23160;DHT22;11748;50.844;4.396;2023-06-14T09:31:18;26.20;73.80
23160;DHT22;11748;50.844;4.396;2023-06-14T09:33:46;26.30;74.50
23160;DHT22;11748;50.844;4.396;2023-06-14T09:36:24;26.30;74.30
23160;DHT22;11748;50.844;4.396;2023-06-14T09:38:55;26.30;74.20
23160;DHT22;11748;50.844;4.396;2023-06-14T09:41:39;26.30;74.70
23160;DHT22;11748;50.844;4.396;2023-06-14T09:44:09;26.30;75.20
23160;DHT22;11748;50.844;4.396;2023-06-14T09:46:36;26.30;75.90
23160;DHT22;11748;50.844;4.396;2023-06-14T09:49:03;26.40;74.80
23160;DHT22;11748;50.844;4.396;2023-06-14T09:51:30;26.40;74.90
23160;DHT22;11748;50.844;4.396;2023-06-14T09:54:00;26.50;74.20
23160;DHT22;11748;50.844;4.396;2023-06-14T09:56:31;26.70;73.80
23160;DHT22;11748;50.844;4.396;2023-06-14T09:58:58;26.60;74.40
23160;DHT22;11748;50.844;4.396;2023-06-14T10:01:24;26.80;74.30
23160;DHT22;11748;50.844;4.396;2023-06-14T10:03:57;26.80;71.90
23160;DHT22;11748;50.844;4.396;2023-06-14T10:06:26;26.80;71.60
23160;DHT22;11748;50.844;4.396;2023-06-14T10:08:57;26.90;70.40
23160;DHT22;11748;50.844;4.396;2023-06-14T10:11:23;26.90;70.80
23160;DHT22;11748;50.844;4.396;2023-06-14T10:13:50;26.90;70.80
23160;DHT22;11748;50.844;4.396;2023-06-14T10:19:20;26.70;71.60
23160;DHT22;11748;50.844;4.396;2023-06-14T10:24:19;26.90;70.70
23160;DHT22;11748;50.844;4.396;2023-06-14T10:26:53;27.10;70.20
23160;DHT22;11748;50.844;4.396;2023-06-14T10:29:19;27.10;70.10
23160;DHT22;11748;50.844;4.396;2023-06-14T10:31:46;27.00;70.40
23160;DHT22;11748;50.844;4.396;2023-06-14T10:34:20;27.10;71.30
23160;DHT22;11748;50.844;4.396;2023-06-14T10:39:28;26.90;69.90
23160;DHT22;11748;50.844;4.396;2023-06-14T10:41:56;27.10;70.10
23160;DHT22;11748;50.844;4.396;2023-06-14T10:46:52;27.30;70.60
23160;DHT22;11748;50.844;4.396;2023-06-14T10:49:19;27.50;69.80
23160;DHT22;11748;50.844;4.396;2023-06-14T10:51:49;27.60;69.90
23160;DHT22;11748;50.844;4.396;2023-06-14T10:54:16;27.70;69.40
23160;DHT22;11748;50.844;4.396;2023-06-14T10:56:49;27.50;70.10
23160;DHT22;11748;50.844;4.396;2023-06-14T10:59:16;27.60;69.40
23160;DHT22;11748;50.844;4.396;2023-06-14T11:02:21;27.60;68.60
23160;DHT22;11748;50.844;4.396;2023-06-14T11:04:51;27.60;67.80
23160;DHT22;11748;50.844;4.396;2023-06-14T11:07:55;27.60;68.30
23160;DHT22;11748;50.844;4.396;2023-06-14T11:10:36;27.80;67.00
23160;DHT22;11748;50.844;4.396;2023-06-14T11:13:08;27.90;67.30
23160;DHT22;11748;50.844;4.396;2023-06-14T11:15:36;28.00;66.90
23160;DHT22;11748;50.844;4.396;2023-06-14T11:18:03;28.00;66.60
23160;DHT22;11748;50.844;4.396;2023-06-14T11:20:31;28.00;67.00
23160;DHT22;11748;50.844;4.396;2023-06-14T11:22:57;28.10;66.50
23160;DHT22;11748;50.844;4.396;2023-06-14T11:25:23;28.10;66.30
23160;DHT22;11748;50.844;4.396;2023-06-14T11:27:50;28.20;66.00
23160;DHT22;11748;50.844;4.396;2023-06-14T11:30:16;28.30;66.50
23160;DHT22;11748;50.844;4.396;2023-06-14T11:32:42;28.20;66.50
23160;DHT22;11748;50.844;4.396;2023-06-14T11:35:08;28.20;66.00
23160;DHT22;11748;50.844;4.396;2023-06-14T11:37:36;28.10;65.90
23160;DHT22;11748;50.844;4.396;2023-06-14T11:40:08;27.60;67.70
23160;DHT22;11748;50.844;4.396;2023-06-14T11:42:35;27.70;66.10
23160;DHT22;11748;50.844;4.396;2023-06-14T11:45:01;27.80;66.70
23160;DHT22;11748;50.844;4.396;2023-06-14T11:47:35;27.90;66.60
23160;DHT22;11748;50.844;4.396;2023-06-14T11:50:02;27.90;66.20
23160;DHT22;11748;50.844;4.396;2023-06-14T11:52:28;28.00;66.30
23160;DHT22;11748;50.844;4.396;2023-06-14T11:54:54;28.20;65.60
23160;DHT22;11748;50.844;4.396;2023-06-14T11:57:20;28.30;64.90
23160;DHT22;11748;50.844;4.396;2023-06-14T11:59:46;28.30;65.50
23160;DHT22;11748;50.844;4.396;2023-06-14T12:02:16;28.30;65.50
23160;DHT22;11748;50.844;4.396;2023-06-14T12:04:47;28.30;65.90
23160;DHT22;11748;50.844;4.396;2023-06-14T12:07:14;28.30;65.10
23160;DHT22;11748;50.844;4.396;2023-06-14T12:09:41;28.40;65.00
23160;DHT22;11748;50.844;4.396;2023-06-14T12:12:12;28.50;65.20
23160;DHT22;11748;50.844;4.396;2023-06-14T12:14:39;28.50;65.60
23160;DHT22;11748;50.844;4.396;2023-06-14T12:17:07;28.60;65.30
23160;DHT22;11748;50.844;4.396;2023-06-14T12:19:33;28.70;65.20
23160;DHT22;11748;50.844;4.396;2023-06-14T12:22:09;28.70;64.60
23160;DHT22;11748;50.844;4.396;2023-06-14T12:24:35;28.70;64.20
23160;DHT22;11748;50.844;4.396;2023-06-14T12:27:01;28.70;64.00
23160;DHT22;11748;50.844;4.396;2023-06-14T12:29:30;28.60;63.80
23160;DHT22;11748;50.844;4.396;2023-06-14T12:31:56;28.50;64.10
23160;DHT22;11748;50.844;4.396;2023-06-14T12:34:25;28.50;63.80
23160;DHT22;11748;50.844;4.396;2023-06-14T12:36:53;28.60;64.50
23160;DHT22;11748;50.844;4.396;2023-06-14T12:39:19;28.70;63.80
23160;DHT22;11748;50.844;4.396;2023-06-14T12:41:45;28.30;64.10
23160;DHT22;11748;50.844;4.396;2023-06-14T12:44:11;28.40;63.30
23160;DHT22;11748;50.844;4.396;2023-06-14T12:46:37;28.50;62.90
23160;DHT22;11748;50.844;4.396;2023-06-14T12:49:05;28.60;62.90
23160;DHT22;11748;50.844;4.396;2023-06-14T12:51:32;28.80;64.00
23160;DHT22;11748;50.844;4.396;2023-06-14T12:53:58;28.80;63.30
23160;DHT22;11748;50.844;4.396;2023-06-14T12:56:24;28.80;63.50
23160;DHT22;11748;50.844;4.396;2023-06-14T12:58:49;28.50;63.80
23160;DHT22;11748;50.844;4.396;2023-06-14T13:01:15;28.60;64.10
23160;DHT22;11748;50.844;4.396;2023-06-14T13:03:41;28.70;63.40
23160;DHT22;11748;50.844;4.396;2023-06-14T13:06:07;28.70;63.10
23160;DHT22;11748;50.844;4.396;2023-06-14T13:08:33;28.80;63.50
23160;DHT22;11748;50.844;4.396;2023-06-14T13:10:59;28.90;63.20
23160;DHT22;11748;50.844;4.396;2023-06-14T13:13:24;28.60;63.30
23160;DHT22;11748;50.844;4.396;2023-06-14T13:15:50;28.80;63.50
23160;DHT22;11748;50.844;4.396;2023-06-14T13:18:16;28.80;63.10
23160;DHT22;11748;50.844;4.396;2023-06-14T13:20:42;28.80;63.50
23160;DHT22;11748;50.844;4.396;2023-06-14T13:23:08;28.70;63.80
23160;DHT22;11748;50.844;4.396;2023-06-14T13:25:36;28.80;63.60
23160;DHT22;11748;50.844;4.396;2023-06-14T13:28:02;28.90;63.20
23160;DHT22;11748;50.844;4.396;2023-06-14T13:30:27;28.90;63.20
23160;DHT22;11748;50.844;4.396;2023-06-14T13:32:53;28.90;62.70
23160;DHT22;11748;50.844;4.396;2023-06-14T13:35:19;28.80;62.50
23160;DHT22;11748;50.844;4.396;2023-06-14T13:37:45;28.20;63.20
23160;DHT22;11748;50.844;4.396;2023-06-14T13:40:12;28.40;63.40
23160;DHT22;11748;50.844;4.396;2023-06-14T13:42:41;28.60;62.50
23160;DHT22;11748;50.844;4.396;2023-06-14T13:45:08;28.80;61.80
23160;DHT22;11748;50.844;4.396;2023-06-14T13:47:34;28.90;62.30
23160;DHT22;11748;50.844;4.396;2023-06-14T13:49:59;29.00;60.80
23160;DHT22;11748;50.844;4.396;2023-06-14T13:52:26;29.10;60.40
23160;DHT22;11748;50.844;4.396;2023-06-14T13:54:51;28.90;61.20
23160;DHT22;11748;50.844;4.396;2023-06-14T13:57:17;29.00;60.30
23160;DHT22;11748;50.844;4.396;2023-06-14T13:59:43;29.00;60.00
23160;DHT22;11748;50.844;4.396;2023-06-14T14:02:12;29.00;59.20
23160;DHT22;11748;50.844;4.396;2023-06-14T14:04:39;28.60;59.80
23160;DHT22;11748;50.844;4.396;2023-06-14T14:07:05;28.70;60.30
23160;DHT22;11748;50.844;4.396;2023-06-14T14:09:32;28.60;60.50
23160;DHT22;11748;50.844;4.396;2023-06-14T14:11:58;28.10;60.90
23160;DHT22;11748;50.844;4.396;2023-06-14T14:14:24;28.10;61.80
23160;DHT22;11748;50.844;4.396;2023-06-14T14:16:53;28.30;61.00
23160;DHT22;11748;50.844;4.396;2023-06-14T14:19:20;28.70;60.70
23160;DHT22;11748;50.844;4.396;2023-06-14T14:21:47;28.90;60.00
23160;DHT22;11748;50.844;4.396;2023-06-14T14:24:14;29.00;59.10
23160;DHT22;11748;50.844;4.396;2023-06-14T14:26:40;29.00;59.00
23160;DHT22;11748;50.844;4.396;2023-06-14T14:29:06;29.10;59.00
23160;DHT22;11748;50.844;4.396;2023-06-14T14:31:32;29.10;59.00
23160;DHT22;11748;50.844;4.396;2023-06-14T14:33:57;29.00;59.30
23160;DHT22;11748;50.844;4.396;2023-06-14T14:36:23;29.10;59.30
23160;DHT22;11748;50.844;4.396;2023-06-14T14:38:49;29.10;58.90
23160;DHT22;11748;50.844;4.396;2023-06-14T14:41:17;29.20;59.10
23160;DHT22;11748;50.844;4.396;2023-06-14T14:43:43;29.30;59.00
23160;DHT22;11748;50.844;4.396;2023-06-14T14:46:09;29.20;59.10
23160;DHT22;11748;50.844;4.396;2023-06-14T14:48:35;29.10;59.20
23160;DHT22;11748;50.844;4.396;2023-06-14T14:51:00;29.10;59.30
23160;DHT22;11748;50.844;4.396;2023-06-14T14:53:27;29.00;59.40
23160;DHT22;11748;50.844;4.396;2023-06-14T14:55:53;29.10;59.30
23160;DHT22;11748;50.844;4.396;2023-06-14T14:58:18;29.10;58.50
23160;DHT22;11748;50.844;4.396;2023-06-14T15:00:45;28.90;58.60
23160;DHT22;11748;50.844;4.396;2023-06-14T15:03:11;28.90;58.80
23160;DHT22;11748;50.844;4.396;2023-06-14T15:05:37;28.90;58.70
23160;DHT22;11748;50.844;4.396;2023-06-14T15:08:03;28.90;58.30
23160;DHT22;11748;50.844;4.396;2023-06-14T15:10:30;28.90;58.30
23160;DHT22;11748;50.844;4.396;2023-06-14T15:12:56;29.00;58.10
23160;DHT22;11748;50.844;4.396;2023-06-14T15:15:22;29.00;58.40
23160;DHT22;11748;50.844;4.396;2023-06-14T15:17:48;29.00;58.80
23160;DHT22;11748;50.844;4.396;2023-06-14T15:20:14;29.00;58.40
23160;DHT22;11748;50.844;4.396;2023-06-14T15:22:40;28.90;59.10
23160;DHT22;11748;50.844;4.396;2023-06-14T15:25:06;28.70;59.30
23160;DHT22;11748;50.844;4.396;2023-06-14T15:27:32;28.70;59.50
23160;DHT22;11748;50.844;4.396;2023-06-14T15:29:58;28.70;59.50
23160;DHT22;11748;50.844;4.396;2023-06-14T15:32:23;28.70;59.50
23160;DHT22;11748;50.844;4.396;2023-06-14T15:34:49;28.60;59.50
23160;DHT22;11748;50.844;4.396;2023-06-14T15:37:14;28.40;60.50
23160;DHT22;11748;50.844;4.396;2023-06-14T15:39:40;28.50;60.10
23160;DHT22;11748;50.844;4.396;2023-06-14T15:42:06;28.60;60.20